sensor_id;sensor_type;location;lat;lon;timestamp;P1;durP1;ratioP1;P2;durP2;ratioP2
22967;SDS011;11650;48.106;-1.696;2023-05-21T00:00:14;13.27;;;4.23;;
22967;SDS011;11650;48.106;-1.696;2023-05-21T00:02:40;13.57;;;4.80;;
22967;SDS011;11650;48.106;-1.696;2023-05-21T00:05:06;11.53;;;4.10;;
22967;SDS011;11650;48.106;-1.696;2023-05-21T00:07:37;12.13;;;4.10;;
22967;SDS011;11650;48.106;-1.696;2023-05-21T00:10:03;14.87;;;4.33;;
22967;SDS011;11650;48.106;-1.696;2023-05-21T00:12:30;15.60;;;4.40;;
22967;SDS011;11650;48.106;-1.696;2023-05-21T00:14:56;13.00;;;4.60;;
22967;SDS011;11650;48.106;-1.696;2023-05-21T00:17:22;18.83;;;4.80;;
22967;SDS011;11650;48.106;-1.696;2023-05-21T00:19:50;16.23;;;4.70;;
22967;SDS011;11650;48.106;-1.696;2023-05-21T00:22:15;12.43;;;4.10;;
22967;SDS011;11650;48.106;-1.696;2023-05-21T00:24:41;11.57;;;4.10;;
22967;SDS011;11650;48.106;-1.696;2023-05-21T00:27:10;8.57;;;4.03;;
22967;SDS011;11650;48.106;-1.696;2023-05-21T00:29:38;17.83;;;4.40;;
22967;SDS011;11650;48.106;-1.696;2023-05-21T00:32:04;15.17;;;4.57;;
22967;SDS011;11650;48.106;-1.696;2023-05-21T00:34:30;14.23;;;4.63;;
22967;SDS011;11650;48.106;-1.696;2023-05-21T00:36:56;17.13;;;4.37;;
22967;SDS011;11650;48.106;-1.696;2023-05-21T00:39:22;12.67;;;4.07;;
22967;SDS011;11650;48.106;-1.696;2023-05-21T00:41:48;15.00;;;4.30;;
22967;SDS011;11650;48.106;-1.696;2023-05-21T00:44:14;11.90;;;4.07;;
22967;SDS011;11650;48.106;-1.696;2023-05-21T00:46:42;16.53;;;4.70;;
22967;SDS011;11650;48.106;-1.696;2023-05-21T00:49:09;13.93;;;4.17;;
22967;SDS011;11650;48.106;-1.696;2023-05-21T00:51:35;13.13;;;4.43;;
22967;SDS011;11650;48.106;-1.696;2023-05-21T00:54:01;14.43;;;4.60;;
22967;SDS011;11650;48.106;-1.696;2023-05-21T00:56:27;14.57;;;4.33;;
22967;SDS011;11650;48.106;-1.696;2023-05-21T00:58:53;13.47;;;4.20;;
22967;SDS011;11650;48.106;-1.696;2023-05-21T01:01:21;14.13;;;3.90;;
22967;SDS011;11650;48.106;-1.696;2023-05-21T01:03:50;10.80;;;3.73;;
22967;SDS011;11650;48.106;-1.696;2023-05-21T01:06:18;15.07;;;3.73;;
22967;SDS011;11650;48.106;-1.696;2023-05-21T01:08:44;15.70;;;4.50;;
22967;SDS011;11650;48.106;-1.696;2023-05-21T01:11:10;15.97;;;4.30;;
22967;SDS011;11650;48.106;-1.696;2023-05-21T01:13:37;10.53;;;4.03;;
22967;SDS011;11650;48.106;-1.696;2023-05-21T01:16:05;15.17;;;4.10;;
22967;SDS011;11650;48.106;-1.696;2023-05-21T01:18:33;10.80;;;3.70;;
22967;SDS011;11650;48.106;-1.696;2023-05-21T01:21:00;15.17;;;4.13;;
22967;SDS011;11650;48.106;-1.696;2023-05-21T01:23:26;12.60;;;3.87;;
22967;SDS011;11650;48.106;-1.696;2023-05-21T01:25:52;12.53;;;3.80;;
22967;SDS011;11650;48.106;-1.696;2023-05-21T01:28:18;13.33;;;3.67;;
22967;SDS011;11650;48.106;-1.696;2023-05-21T01:30:44;10.60;;;3.43;;
22967;SDS011;11650;48.106;-1.696;2023-05-21T01:35:43;13.03;;;3.97;;
22967;SDS011;11650;48.106;-1.696;2023-05-21T01:38:25;12.40;;;3.60;;
22967;SDS011;11650;48.106;-1.696;2023-05-21T01:40:59;15.17;;;4.17;;
22967;SDS011;11650;48.106;-1.696;2023-05-21T01:43:28;13.73;;;4.43;;
22967;SDS011;11650;48.106;-1.696;2023-05-21T01:45:57;15.47;;;3.70;;
22967;SDS011;11650;48.106;-1.696;2023-05-21T01:48:26;13.30;;;3.93;;
22967;SDS011;11650;48.106;-1.696;2023-05-21T01:50:53;10.83;;;3.43;;
22967;SDS011;11650;48.106;-1.696;2023-05-21T01:53:21;10.73;;;3.80;;
22967;SDS011;11650;48.106;-1.696;2023-05-21T01:55:47;11.33;;;4.33;;
22967;SDS011;11650;48.106;-1.696;2023-05-21T01:58:13;16.10;;;4.17;;
22967;SDS011;11650;48.106;-1.696;2023-05-21T02:00:39;16.37;;;3.63;;
22967;SDS011;11650;48.106;-1.696;2023-05-21T02:03:06;11.43;;;3.30;;
22967;SDS011;11650;48.106;-1.696;2023-05-21T02:05:33;20.07;;;4.03;;
22967;SDS011;11650;48.106;-1.696;2023-05-21T02:07:58;12.07;;;3.37;;
22967;SDS011;11650;48.106;-1.696;2023-05-21T02:10:25;12.53;;;3.40;;
22967;SDS011;11650;48.106;-1.696;2023-05-21T02:12:50;12.97;;;3.57;;
22967;SDS011;11650;48.106;-1.696;2023-05-21T02:15:16;17.67;;;4.17;;
22967;SDS011;11650;48.106;-1.696;2023-05-21T02:17:43;15.13;;;3.67;;
22967;SDS011;11650;48.106;-1.696;2023-05-21T02:20:11;13.60;;;3.77;;
22967;SDS011;11650;48.106;-1.696;2023-05-21T02:25:04;13.00;;;3.20;;
22967;SDS011;11650;48.106;-1.696;2023-05-21T02:27:32;17.10;;;3.90;;
22967;SDS011;11650;48.106;-1.696;2023-05-21T02:29:59;17.37;;;3.40;;
22967;SDS011;11650;48.106;-1.696;2023-05-21T02:32:25;9.97;;;3.50;;
22967;SDS011;11650;48.106;-1.696;2023-05-21T02:34:51;16.10;;;4.07;;
22967;SDS011;11650;48.106;-1.696;2023-05-21T02:37:17;10.03;;;3.70;;
22967;SDS011;11650;48.106;-1.696;2023-05-21T02:39:43;15.47;;;3.60;;
22967;SDS011;11650;48.106;-1.696;2023-05-21T02:42:09;12.93;;;3.50;;
22967;SDS011;11650;48.106;-1.696;2023-05-21T02:44:34;16.43;;;4.10;;
22967;SDS011;11650;48.106;-1.696;2023-05-21T02:47:00;13.50;;;3.57;;
22967;SDS011;11650;48.106;-1.696;2023-05-21T02:49:26;18.90;;;3.83;;
22967;SDS011;11650;48.106;-1.696;2023-05-21T02:51:51;16.37;;;3.50;;
22967;SDS011;11650;48.106;-1.696;2023-05-21T02:54:17;14.37;;;3.30;;
22967;SDS011;11650;48.106;-1.696;2023-05-21T02:56:42;17.23;;;3.87;;
22967;SDS011;11650;48.106;-1.696;2023-05-21T02:59:08;13.87;;;3.50;;
22967;SDS011;11650;48.106;-1.696;2023-05-21T03:01:34;16.70;;;4.60;;
22967;SDS011;11650;48.106;-1.696;2023-05-21T03:03:59;14.87;;;3.67;;
22967;SDS011;11650;48.106;-1.696;2023-05-21T03:06:25;12.87;;;3.57;;
22967;SDS011;11650;48.106;-1.696;2023-05-21T03:08:51;17.60;;;3.77;;
22967;SDS011;11650;48.106;-1.696;2023-05-21T03:11:17;15.13;;;3.20;;
22967;SDS011;11650;48.106;-1.696;2023-05-21T03:13:44;16.43;;;4.03;;
22967;SDS011;11650;48.106;-1.696;2023-05-21T03:16:09;19.60;;;3.70;;
22967;SDS011;11650;48.106;-1.696;2023-05-21T03:18:35;16.60;;;4.07;;
22967;SDS011;11650;48.106;-1.696;2023-05-21T03:21:01;11.47;;;3.20;;
22967;SDS011;11650;48.106;-1.696;2023-05-21T03:23:26;14.80;;;4.17;;
22967;SDS011;11650;48.106;-1.696;2023-05-21T03:25:52;14.17;;;3.77;;
22967;SDS011;11650;48.106;-1.696;2023-05-21T03:28:17;18.83;;;3.53;;
22967;SDS011;11650;48.106;-1.696;2023-05-21T03:30:43;14.87;;;3.60;;
22967;SDS011;11650;48.106;-1.696;2023-05-21T03:33:13;12.83;;;3.53;;
22967;SDS011;11650;48.106;-1.696;2023-05-21T03:35:39;16.87;;;3.50;;
22967;SDS011;11650;48.106;-1.696;2023-05-21T03:38:05;11.17;;;3.67;;
22967;SDS011;11650;48.106;-1.696;2023-05-21T03:40:30;14.90;;;3.57;;
22967;SDS011;11650;48.106;-1.696;2023-05-21T03:42:56;18.20;;;3.80;;
22967;SDS011;11650;48.106;-1.696;2023-05-21T03:45:22;14.20;;;3.70;;
22967;SDS011;11650;48.106;-1.696;2023-05-21T03:47:47;14.60;;;3.90;;
22967;SDS011;11650;48.106;-1.696;2023-05-21T03:50:13;18.60;;;4.10;;
22967;SDS011;11650;48.106;-1.696;2023-05-21T03:52:39;17.67;;;3.57;;
22967;SDS011;11650;48.106;-1.696;2023-05-21T03:55:04;15.87;;;3.77;;
22967;SDS011;11650;48.106;-1.696;2023-05-21T03:57:30;22.67;;;3.73;;
22967;SDS011;11650;48.106;-1.696;2023-05-21T03:59:56;16.60;;;3.50;;
22967;SDS011;11650;48.106;-1.696;2023-05-21T04:02:24;15.97;;;3.63;;
22967;SDS011;11650;48.106;-1.696;2023-05-21T04:04:51;15.97;;;3.77;;
22967;SDS011;11650;48.106;-1.696;2023-05-21T04:07:17;15.80;;;3.57;;
22967;SDS011;11650;48.106;-1.696;2023-05-21T04:09:43;22.13;;;4.37;;
22967;SDS011;11650;48.106;-1.696;2023-05-21T04:12:10;16.80;;;4.07;;
22967;SDS011;11650;48.106;-1.696;2023-05-21T04:14:35;15.40;;;3.60;;
22967;SDS011;11650;48.106;-1.696;2023-05-21T04:17:04;13.17;;;3.23;;
22967;SDS011;11650;48.106;-1.696;2023-05-21T04:19:30;14.37;;;4.13;;
22967;SDS011;11650;48.106;-1.696;2023-05-21T04:21:56;14.63;;;4.03;;
22967;SDS011;11650;48.106;-1.696;2023-05-21T04:24:22;20.77;;;4.00;;
22967;SDS011;11650;48.106;-1.696;2023-05-21T04:26:48;21.47;;;4.57;;
22967;SDS011;11650;48.106;-1.696;2023-05-21T04:29:14;13.10;;;4.00;;
22967;SDS011;11650;48.106;-1.696;2023-05-21T04:31:45;15.57;;;3.93;;
22967;SDS011;11650;48.106;-1.696;2023-05-21T04:34:14;24.60;;;4.87;;
22967;SDS011;11650;48.106;-1.696;2023-05-21T04:36:43;20.30;;;5.20;;
22967;SDS011;11650;48.106;-1.696;2023-05-21T04:39:10;16.73;;;4.20;;
22967;SDS011;11650;48.106;-1.696;2023-05-21T04:41:36;14.47;;;4.73;;
22967;SDS011;11650;48.106;-1.696;2023-05-21T04:44:03;16.47;;;4.80;;
22967;SDS011;11650;48.106;-1.696;2023-05-21T04:46:32;23.33;;;5.03;;
22967;SDS011;11650;48.106;-1.696;2023-05-21T04:48:59;22.67;;;5.17;;
22967;SDS011;11650;48.106;-1.696;2023-05-21T04:51:27;21.30;;;5.30;;
22967;SDS011;11650;48.106;-1.696;2023-05-21T04:53:53;20.67;;;5.73;;
22967;SDS011;11650;48.106;-1.696;2023-05-21T04:56:18;15.87;;;5.70;;
22967;SDS011;11650;48.106;-1.696;2023-05-21T04:58:46;19.27;;;5.40;;
22967;SDS011;11650;48.106;-1.696;2023-05-21T05:01:12;17.50;;;5.67;;
22967;SDS011;11650;48.106;-1.696;2023-05-21T05:03:38;19.63;;;5.90;;
22967;SDS011;11650;48.106;-1.696;2023-05-21T05:06:04;16.57;;;6.00;;
22967;SDS011;11650;48.106;-1.696;2023-05-21T05:08:30;19.47;;;6.33;;
22967;SDS011;11650;48.106;-1.696;2023-05-21T05:10:55;19.63;;;6.70;;
22967;SDS011;11650;48.106;-1.696;2023-05-21T05:13:21;23.20;;;6.37;;
22967;SDS011;11650;48.106;-1.696;2023-05-21T05:15:46;23.40;;;6.47;;
22967;SDS011;11650;48.106;-1.696;2023-05-21T05:18:12;21.07;;;6.23;;
22967;SDS011;11650;48.106;-1.696;2023-05-21T05:20:38;20.63;;;6.60;;
22967;SDS011;11650;48.106;-1.696;2023-05-21T05:23:03;27.40;;;6.57;;
22967;SDS011;11650;48.106;-1.696;2023-05-21T05:25:29;20.77;;;5.93;;
22967;SDS011;11650;48.106;-1.696;2023-05-21T05:27:54;19.27;;;6.33;;
22967;SDS011;11650;48.106;-1.696;2023-05-21T05:30:20;21.23;;;6.57;;
22967;SDS011;11650;48.106;-1.696;2023-05-21T05:32:46;26.97;;;6.87;;
22967;SDS011;11650;48.106;-1.696;2023-05-21T05:35:11;18.47;;;6.30;;
22967;SDS011;11650;48.106;-1.696;2023-05-21T05:37:37;20.27;;;5.90;;
22967;SDS011;11650;48.106;-1.696;2023-05-21T05:40:03;18.93;;;6.53;;
22967;SDS011;11650;48.106;-1.696;2023-05-21T05:42:29;19.83;;;6.27;;
22967;SDS011;11650;48.106;-1.696;2023-05-21T05:44:55;23.00;;;6.63;;
22967;SDS011;11650;48.106;-1.696;2023-05-21T05:47:21;23.70;;;6.50;;
22967;SDS011;11650;48.106;-1.696;2023-05-21T05:49:46;20.67;;;6.63;;
22967;SDS011;11650;48.106;-1.696;2023-05-21T05:52:12;22.37;;;6.80;;
22967;SDS011;11650;48.106;-1.696;2023-05-21T05:54:38;21.30;;;6.60;;
22967;SDS011;11650;48.106;-1.696;2023-05-21T05:57:04;20.70;;;6.43;;
22967;SDS011;11650;48.106;-1.696;2023-05-21T05:59:30;21.10;;;6.87;;
22967;SDS011;11650;48.106;-1.696;2023-05-21T06:01:57;20.63;;;7.03;;
22967;SDS011;11650;48.106;-1.696;2023-05-21T06:04:23;22.33;;;6.80;;
22967;SDS011;11650;48.106;-1.696;2023-05-21T06:06:50;26.80;;;7.10;;
22967;SDS011;11650;48.106;-1.696;2023-05-21T06:09:16;25.60;;;7.43;;
22967;SDS011;11650;48.106;-1.696;2023-05-21T06:11:42;27.00;;;8.03;;
22967;SDS011;11650;48.106;-1.696;2023-05-21T06:14:07;27.30;;;7.57;;
22967;SDS011;11650;48.106;-1.696;2023-05-21T06:16:33;24.20;;;7.33;;
22967;SDS011;11650;48.106;-1.696;2023-05-21T06:18:59;20.57;;;7.67;;
22967;SDS011;11650;48.106;-1.696;2023-05-21T06:21:25;25.73;;;8.23;;
22967;SDS011;11650;48.106;-1.696;2023-05-21T06:23:50;24.07;;;8.27;;
22967;SDS011;11650;48.106;-1.696;2023-05-21T06:26:16;26.93;;;8.50;;
22967;SDS011;11650;48.106;-1.696;2023-05-21T06:28:43;20.77;;;7.57;;
22967;SDS011;11650;48.106;-1.696;2023-05-21T06:31:08;28.77;;;8.00;;
22967;SDS011;11650;48.106;-1.696;2023-05-21T06:33:35;26.97;;;8.47;;
22967;SDS011;11650;48.106;-1.696;2023-05-21T06:36:01;21.87;;;8.33;;
22967;SDS011;11650;48.106;-1.696;2023-05-21T06:38:27;29.17;;;9.10;;
22967;SDS011;11650;48.106;-1.696;2023-05-21T06:40:52;23.73;;;8.43;;
22967;SDS011;11650;48.106;-1.696;2023-05-21T06:43:18;23.40;;;8.27;;
22967;SDS011;11650;48.106;-1.696;2023-05-21T06:45:43;25.30;;;8.10;;
22967;SDS011;11650;48.106;-1.696;2023-05-21T06:48:09;19.17;;;8.20;;
22967;SDS011;11650;48.106;-1.696;2023-05-21T06:50:36;25.20;;;9.07;;
22967;SDS011;11650;48.106;-1.696;2023-05-21T06:53:02;20.33;;;8.90;;
22967;SDS011;11650;48.106;-1.696;2023-05-21T06:55:28;30.13;;;9.63;;
22967;SDS011;11650;48.106;-1.696;2023-05-21T06:57:53;22.17;;;8.53;;
22967;SDS011;11650;48.106;-1.696;2023-05-21T07:00:22;31.20;;;8.93;;
22967;SDS011;11650;48.106;-1.696;2023-05-21T07:02:47;24.13;;;9.00;;
22967;SDS011;11650;48.106;-1.696;2023-05-21T07:05:13;26.97;;;9.20;;
22967;SDS011;11650;48.106;-1.696;2023-05-21T07:07:39;26.27;;;9.00;;
22967;SDS011;11650;48.106;-1.696;2023-05-21T07:10:04;25.13;;;9.67;;
22967;SDS011;11650;48.106;-1.696;2023-05-21T07:12:30;21.73;;;8.77;;
22967;SDS011;11650;48.106;-1.696;2023-05-21T07:14:56;25.77;;;9.37;;
22967;SDS011;11650;48.106;-1.696;2023-05-21T07:17:21;23.17;;;9.10;;
22967;SDS011;11650;48.106;-1.696;2023-05-21T07:19:47;24.43;;;9.63;;
22967;SDS011;11650;48.106;-1.696;2023-05-21T07:22:13;21.60;;;8.97;;
22967;SDS011;11650;48.106;-1.696;2023-05-21T07:24:38;20.20;;;8.40;;
22967;SDS011;11650;48.106;-1.696;2023-05-21T07:27:04;22.17;;;9.67;;
22967;SDS011;11650;48.106;-1.696;2023-05-21T07:29:31;25.60;;;10.10;;
22967;SDS011;11650;48.106;-1.696;2023-05-21T07:31:58;23.10;;;9.37;;
22967;SDS011;11650;48.106;-1.696;2023-05-21T07:34:24;26.10;;;9.30;;
22967;SDS011;11650;48.106;-1.696;2023-05-21T07:36:50;30.83;;;9.93;;
22967;SDS011;11650;48.106;-1.696;2023-05-21T07:39:15;23.87;;;9.40;;
22967;SDS011;11650;48.106;-1.696;2023-05-21T07:41:42;22.43;;;9.60;;
22967;SDS011;11650;48.106;-1.696;2023-05-21T07:44:07;24.23;;;9.53;;
22967;SDS011;11650;48.106;-1.696;2023-05-21T07:46:33;17.73;;;8.87;;
22967;SDS011;11650;48.106;-1.696;2023-05-21T07:48:59;27.07;;;10.57;;
22967;SDS011;11650;48.106;-1.696;2023-05-21T07:51:25;24.67;;;10.17;;
22967;SDS011;11650;48.106;-1.696;2023-05-21T07:53:51;21.83;;;10.03;;
22967;SDS011;11650;48.106;-1.696;2023-05-21T07:56:16;22.07;;;9.60;;
22967;SDS011;11650;48.106;-1.696;2023-05-21T07:58:42;30.17;;;9.63;;
22967;SDS011;11650;48.106;-1.696;2023-05-21T08:01:10;25.07;;;10.33;;
22967;SDS011;11650;48.106;-1.696;2023-05-21T08:03:36;27.53;;;10.50;;
22967;SDS011;11650;48.106;-1.696;2023-05-21T08:06:02;22.47;;;10.00;;
22967;SDS011;11650;48.106;-1.696;2023-05-21T08:08:28;24.27;;;9.93;;
22967;SDS011;11650;48.106;-1.696;2023-05-21T08:10:54;26.13;;;10.23;;
22967;SDS011;11650;48.106;-1.696;2023-05-21T08:13:20;20.47;;;10.00;;
22967;SDS011;11650;48.106;-1.696;2023-05-21T08:15:46;30.27;;;10.27;;
22967;SDS011;11650;48.106;-1.696;2023-05-21T08:18:12;24.97;;;10.30;;
22967;SDS011;11650;48.106;-1.696;2023-05-21T08:20:38;19.23;;;9.50;;
22967;SDS011;11650;48.106;-1.696;2023-05-21T08:23:03;22.77;;;10.17;;
22967;SDS011;11650;48.106;-1.696;2023-05-21T08:25:29;19.73;;;10.00;;
22967;SDS011;11650;48.106;-1.696;2023-05-21T08:27:55;27.27;;;10.30;;
22967;SDS011;11650;48.106;-1.696;2023-05-21T08:30:21;20.90;;;10.87;;
22967;SDS011;11650;48.106;-1.696;2023-05-21T08:32:47;25.27;;;12.10;;
22967;SDS011;11650;48.106;-1.696;2023-05-21T08:35:13;22.90;;;12.27;;
22967;SDS011;11650;48.106;-1.696;2023-05-21T08:37:39;20.37;;;11.07;;
22967;SDS011;11650;48.106;-1.696;2023-05-21T08:40:05;23.90;;;10.23;;
22967;SDS011;11650;48.106;-1.696;2023-05-21T08:45:10;24.20;;;11.40;;
22967;SDS011;11650;48.106;-1.696;2023-05-21T08:47:43;25.07;;;11.43;;
22967;SDS011;11650;48.106;-1.696;2023-05-21T08:50:11;28.47;;;11.37;;
22967;SDS011;11650;48.106;-1.696;2023-05-21T08:52:41;28.87;;;11.80;;
22967;SDS011;11650;48.106;-1.696;2023-05-21T08:55:07;20.80;;;10.93;;
22967;SDS011;11650;48.106;-1.696;2023-05-21T08:57:33;23.37;;;11.57;;
22967;SDS011;11650;48.106;-1.696;2023-05-21T08:59:59;25.07;;;11.07;;
22967;SDS011;11650;48.106;-1.696;2023-05-21T09:02:26;27.63;;;12.13;;
22967;SDS011;11650;48.106;-1.696;2023-05-21T09:04:54;27.07;;;12.27;;
22967;SDS011;11650;48.106;-1.696;2023-05-21T09:07:21;24.57;;;10.93;;
22967;SDS011;11650;48.106;-1.696;2023-05-21T09:09:55;26.53;;;11.77;;
22967;SDS011;11650;48.106;-1.696;2023-05-21T09:12:25;25.57;;;10.60;;
22967;SDS011;11650;48.106;-1.696;2023-05-21T09:14:52;23.17;;;11.50;;
22967;SDS011;11650;48.106;-1.696;2023-05-21T09:17:18;25.13;;;12.03;;
22967;SDS011;11650;48.106;-1.696;2023-05-21T09:22:43;22.93;;;12.47;;
22967;SDS011;11650;48.106;-1.696;2023-05-21T09:25:11;23.60;;;11.43;;
22967;SDS011;11650;48.106;-1.696;2023-05-21T09:27:39;22.80;;;12.13;;
22967;SDS011;11650;48.106;-1.696;2023-05-21T09:30:08;18.03;;;10.47;;
22967;SDS011;11650;48.106;-1.696;2023-05-21T09:32:35;24.50;;;11.00;;
22967;SDS011;11650;48.106;-1.696;2023-05-21T09:35:06;24.83;;;11.10;;
22967;SDS011;11650;48.106;-1.696;2023-05-21T09:37:35;22.83;;;12.00;;
22967;SDS011;11650;48.106;-1.696;2023-05-21T09:40:17;23.13;;;11.30;;
22967;SDS011;11650;48.106;-1.696;2023-05-21T09:42:44;26.63;;;12.77;;
22967;SDS011;11650;48.106;-1.696;2023-05-21T09:45:17;19.87;;;11.90;;
22967;SDS011;11650;48.106;-1.696;2023-05-21T09:47:47;21.30;;;10.90;;
22967;SDS011;11650;48.106;-1.696;2023-05-21T09:50:18;24.70;;;11.03;;
22967;SDS011;11650;48.106;-1.696;2023-05-21T09:52:45;22.13;;;11.57;;
22967;SDS011;11650;48.106;-1.696;2023-05-21T09:55:12;22.73;;;10.47;;
22967;SDS011;11650;48.106;-1.696;2023-05-21T09:57:42;24.30;;;12.77;;
22967;SDS011;11650;48.106;-1.696;2023-05-21T10:00:15;22.77;;;11.93;;
22967;SDS011;11650;48.106;-1.696;2023-05-21T10:02:45;24.07;;;11.83;;
22967;SDS011;11650;48.106;-1.696;2023-05-21T10:05:23;20.93;;;10.90;;
22967;SDS011;11650;48.106;-1.696;2023-05-21T10:07:52;20.37;;;10.60;;
22967;SDS011;11650;48.106;-1.696;2023-05-21T10:10:30;21.73;;;10.67;;
22967;SDS011;11650;48.106;-1.696;2023-05-21T10:13:01;22.70;;;11.43;;
22967;SDS011;11650;48.106;-1.696;2023-05-21T10:15:31;25.00;;;12.10;;
22967;SDS011;11650;48.106;-1.696;2023-05-21T10:18:02;18.37;;;10.17;;
22967;SDS011;11650;48.106;-1.696;2023-05-21T10:20:28;20.43;;;10.33;;
22967;SDS011;11650;48.106;-1.696;2023-05-21T10:22:54;26.53;;;10.70;;
22967;SDS011;11650;48.106;-1.696;2023-05-21T10:25:22;21.33;;;11.40;;
22967;SDS011;11650;48.106;-1.696;2023-05-21T10:27:49;20.80;;;10.70;;
22967;SDS011;11650;48.106;-1.696;2023-05-21T10:30:18;18.23;;;10.37;;
22967;SDS011;11650;48.106;-1.696;2023-05-21T10:32:49;20.37;;;10.30;;
22967;SDS011;11650;48.106;-1.696;2023-05-21T10:35:15;21.10;;;10.90;;
22967;SDS011;11650;48.106;-1.696;2023-05-21T10:37:42;21.57;;;10.53;;
22967;SDS011;11650;48.106;-1.696;2023-05-21T10:40:09;18.47;;;10.20;;
22967;SDS011;11650;48.106;-1.696;2023-05-21T10:45:42;20.70;;;10.20;;
22967;SDS011;11650;48.106;-1.696;2023-05-21T10:51:38;18.80;;;10.27;;
22967;SDS011;11650;48.106;-1.696;2023-05-21T10:54:37;21.00;;;9.87;;
22967;SDS011;11650;48.106;-1.696;2023-05-21T10:59:54;15.47;;;9.40;;
22967;SDS011;11650;48.106;-1.696;2023-05-21T11:02:24;20.00;;;9.87;;
22967;SDS011;11650;48.106;-1.696;2023-05-21T11:04:57;20.80;;;10.50;;
22967;SDS011;11650;48.106;-1.696;2023-05-21T11:07:48;18.97;;;9.67;;
22967;SDS011;11650;48.106;-1.696;2023-05-21T11:13:13;18.93;;;9.47;;
22967;SDS011;11650;48.106;-1.696;2023-05-21T11:21:07;19.53;;;9.40;;
22967;SDS011;11650;48.106;-1.696;2023-05-21T11:23:47;16.40;;;9.23;;
22967;SDS011;11650;48.106;-1.696;2023-05-21T11:26:24;17.13;;;8.97;;
22967;SDS011;11650;48.106;-1.696;2023-05-21T11:31:28;16.47;;;10.07;;
22967;SDS011;11650;48.106;-1.696;2023-05-21T11:36:46;16.03;;;9.10;;
22967;SDS011;11650;48.106;-1.696;2023-05-21T11:39:13;21.07;;;9.40;;
22967;SDS011;11650;48.106;-1.696;2023-05-21T11:44:40;15.83;;;8.90;;
22967;SDS011;11650;48.106;-1.696;2023-05-21T11:47:13;16.77;;;9.33;;
22967;SDS011;11650;48.106;-1.696;2023-05-21T11:49:40;18.23;;;9.67;;
22967;SDS011;11650;48.106;-1.696;2023-05-21T11:52:07;17.10;;;9.23;;
22967;SDS011;11650;48.106;-1.696;2023-05-21T11:54:38;17.80;;;8.60;;
22967;SDS011;11650;48.106;-1.696;2023-05-21T11:57:08;15.93;;;8.73;;
22967;SDS011;11650;48.106;-1.696;2023-05-21T11:59:34;15.30;;;8.67;;
22967;SDS011;11650;48.106;-1.696;2023-05-21T12:02:01;15.77;;;9.70;;
22967;SDS011;11650;48.106;-1.696;2023-05-21T12:04:32;14.70;;;9.27;;
22967;SDS011;11650;48.106;-1.696;2023-05-21T12:07:04;17.27;;;8.00;;
22967;SDS011;11650;48.106;-1.696;2023-05-21T12:09:43;18.63;;;9.63;;
22967;SDS011;11650;48.106;-1.696;2023-05-21T12:12:11;17.77;;;8.80;;
22967;SDS011;11650;48.106;-1.696;2023-05-21T12:14:45;18.67;;;9.27;;
22967;SDS011;11650;48.106;-1.696;2023-05-21T12:17:16;15.57;;;8.97;;
22967;SDS011;11650;48.106;-1.696;2023-05-21T12:19:43;14.10;;;8.00;;
22967;SDS011;11650;48.106;-1.696;2023-05-21T12:22:10;15.80;;;7.93;;
22967;SDS011;11650;48.106;-1.696;2023-05-21T12:24:36;17.63;;;9.43;;
22967;SDS011;11650;48.106;-1.696;2023-05-21T12:27:02;19.07;;;9.90;;
22967;SDS011;11650;48.106;-1.696;2023-05-21T12:29:34;14.87;;;8.57;;
22967;SDS011;11650;48.106;-1.696;2023-05-21T12:32:02;15.97;;;9.13;;
22967;SDS011;11650;48.106;-1.696;2023-05-21T12:37:30;15.40;;;9.00;;
22967;SDS011;11650;48.106;-1.696;2023-05-21T12:39:59;20.57;;;9.40;;
22967;SDS011;11650;48.106;-1.696;2023-05-21T12:42:29;16.67;;;8.87;;
22967;SDS011;11650;48.106;-1.696;2023-05-21T12:44:59;16.73;;;8.77;;
22967;SDS011;11650;48.106;-1.696;2023-05-21T12:47:26;16.37;;;8.03;;
22967;SDS011;11650;48.106;-1.696;2023-05-21T12:50:01;21.40;;;9.60;;
22967;SDS011;11650;48.106;-1.696;2023-05-21T12:52:28;18.83;;;9.40;;
22967;SDS011;11650;48.106;-1.696;2023-05-21T12:54:57;20.20;;;9.93;;
22967;SDS011;11650;48.106;-1.696;2023-05-21T12:57:25;18.73;;;9.80;;
22967;SDS011;11650;48.106;-1.696;2023-05-21T13:00:02;18.83;;;8.33;;
22967;SDS011;11650;48.106;-1.696;2023-05-21T13:02:33;14.73;;;7.90;;
22967;SDS011;11650;48.106;-1.696;2023-05-21T13:05:03;17.90;;;9.23;;
22967;SDS011;11650;48.106;-1.696;2023-05-21T13:07:31;19.07;;;8.03;;
22967;SDS011;11650;48.106;-1.696;2023-05-21T13:09:58;15.90;;;8.07;;
22967;SDS011;11650;48.106;-1.696;2023-05-21T13:12:25;18.93;;;8.30;;
22967;SDS011;11650;48.106;-1.696;2023-05-21T13:14:54;16.40;;;7.57;;
22967;SDS011;11650;48.106;-1.696;2023-05-21T13:17:20;13.80;;;7.60;;
22967;SDS011;11650;48.106;-1.696;2023-05-21T13:22:36;15.37;;;7.60;;
22967;SDS011;11650;48.106;-1.696;2023-05-21T13:25:06;15.73;;;7.93;;
22967;SDS011;11650;48.106;-1.696;2023-05-21T13:27:33;16.00;;;8.10;;
22967;SDS011;11650;48.106;-1.696;2023-05-21T13:29:58;20.80;;;8.00;;
22967;SDS011;11650;48.106;-1.696;2023-05-21T13:32:25;13.33;;;6.87;;
22967;SDS011;11650;48.106;-1.696;2023-05-21T13:34:50;11.07;;;7.20;;
22967;SDS011;11650;48.106;-1.696;2023-05-21T13:37:16;14.80;;;7.07;;
22967;SDS011;11650;48.106;-1.696;2023-05-21T13:39:42;17.87;;;8.10;;
22967;SDS011;11650;48.106;-1.696;2023-05-21T13:42:07;19.70;;;7.40;;
22967;SDS011;11650;48.106;-1.696;2023-05-21T13:44:33;13.43;;;7.43;;
22967;SDS011;11650;48.106;-1.696;2023-05-21T13:47:03;15.60;;;7.07;;
22967;SDS011;11650;48.106;-1.696;2023-05-21T13:49:30;16.40;;;7.20;;
22967;SDS011;11650;48.106;-1.696;2023-05-21T13:51:57;16.90;;;7.53;;
22967;SDS011;11650;48.106;-1.696;2023-05-21T13:54:24;17.20;;;6.87;;
22967;SDS011;11650;48.106;-1.696;2023-05-21T13:56:50;15.70;;;6.63;;
22967;SDS011;11650;48.106;-1.696;2023-05-21T13:59:16;14.63;;;7.60;;
22967;SDS011;11650;48.106;-1.696;2023-05-21T14:01:42;16.47;;;7.43;;
22967;SDS011;11650;48.106;-1.696;2023-05-21T14:04:12;13.00;;;6.17;;
22967;SDS011;11650;48.106;-1.696;2023-05-21T14:06:38;14.07;;;7.17;;
22967;SDS011;11650;48.106;-1.696;2023-05-21T14:09:05;16.50;;;7.20;;
22967;SDS011;11650;48.106;-1.696;2023-05-21T14:11:31;14.17;;;7.23;;
22967;SDS011;11650;48.106;-1.696;2023-05-21T14:13:57;16.87;;;7.20;;
22967;SDS011;11650;48.106;-1.696;2023-05-21T14:16:23;16.57;;;7.10;;
22967;SDS011;11650;48.106;-1.696;2023-05-21T14:18:54;14.07;;;7.00;;
22967;SDS011;11650;48.106;-1.696;2023-05-21T14:21:21;14.17;;;6.30;;
22967;SDS011;11650;48.106;-1.696;2023-05-21T14:23:47;16.37;;;6.73;;
22967;SDS011;11650;48.106;-1.696;2023-05-21T14:26:13;14.97;;;6.43;;
22967;SDS011;11650;48.106;-1.696;2023-05-21T14:28:39;13.40;;;6.00;;
22967;SDS011;11650;48.106;-1.696;2023-05-21T14:31:05;14.90;;;6.30;;
22967;SDS011;11650;48.106;-1.696;2023-05-21T14:33:31;13.90;;;6.97;;
22967;SDS011;11650;48.106;-1.696;2023-05-21T14:35:57;16.10;;;7.27;;
22967;SDS011;11650;48.106;-1.696;2023-05-21T14:38:23;14.30;;;7.88;;
22967;SDS011;11650;48.106;-1.696;2023-05-21T14:40:49;19.95;;;6.57;;
22967;SDS011;11650;48.106;-1.696;2023-05-21T14:43:15;17.88;;;7.45;;
22967;SDS011;11650;48.106;-1.696;2023-05-21T14:45:41;16.85;;;7.70;;
22967;SDS011;11650;48.106;-1.696;2023-05-21T14:48:06;17.40;;;7.40;;
22967;SDS011;11650;48.106;-1.696;2023-05-21T14:50:35;15.52;;;7.43;;
22967;SDS011;11650;48.106;-1.696;2023-05-21T14:53:02;15.90;;;6.63;;
22967;SDS011;11650;48.106;-1.696;2023-05-21T14:55:32;13.13;;;6.50;;
22967;SDS011;11650;48.106;-1.696;2023-05-21T14:58:02;15.27;;;7.03;;
22967;SDS011;11650;48.106;-1.696;2023-05-21T15:00:30;16.67;;;6.90;;